createdAt,value
2022-10-08T00:01:52.632Z,16.20
2022-10-08T00:04:38.372Z,16.20
2022-10-08T00:07:24.451Z,16.10
2022-10-08T00:10:10.238Z,16.10
2022-10-08T00:12:55.802Z,16.10
2022-10-08T00:15:41.983Z,16.10
2022-10-08T00:18:30.143Z,16.00
2022-10-08T00:21:36.560Z,15.90
2022-10-08T00:24:23.362Z,15.90
2022-10-08T00:27:09.066Z,15.90
2022-10-08T00:29:55.808Z,15.80
2022-10-08T00:32:41.821Z,15.80
2022-10-08T00:35:27.406Z,15.80
2022-10-08T00:38:13.126Z,15.80
2022-10-08T00:41:00.096Z,15.80
2022-10-08T00:43:47.466Z,15.80
2022-10-08T00:46:42.145Z,15.80
2022-10-08T00:49:27.739Z,15.80
2022-10-08T00:52:18.615Z,15.70
2022-10-08T00:55:07.574Z,15.70
2022-10-08T00:57:54.538Z,15.70
2022-10-08T01:00:40.520Z,15.80
2022-10-08T01:03:26.091Z,15.70
2022-10-08T01:06:28.066Z,15.70
2022-10-08T01:09:19.857Z,15.70
2022-10-08T01:12:45.050Z,15.70
2022-10-08T01:15:35.610Z,15.80
2022-10-08T01:18:23.924Z,15.70
2022-10-08T01:21:17.562Z,15.80
2022-10-08T01:24:19.969Z,15.80
2022-10-08T01:27:15.319Z,15.80
2022-10-08T01:30:06.089Z,15.90
2022-10-08T01:33:00.233Z,15.90
2022-10-08T01:35:50.926Z,15.80
2022-10-08T01:38:41.680Z,15.80
2022-10-08T01:41:31.160Z,15.80
2022-10-08T01:44:26.445Z,15.80
2022-10-08T01:47:16.886Z,15.80
2022-10-08T01:50:20.362Z,15.80
2022-10-08T01:53:11.557Z,15.80
2022-10-08T01:55:58.570Z,15.80
2022-10-08T01:58:56.274Z,15.70
2022-10-08T02:01:49.948Z,15.60
2022-10-08T02:04:37.477Z,15.60
2022-10-08T02:07:30.471Z,15.60
2022-10-08T02:10:21.220Z,15.50
2022-10-08T02:13:07.238Z,15.50
2022-10-08T02:16:13.156Z,15.50
2022-10-08T02:19:32.007Z,15.50
2022-10-08T02:22:22.080Z,15.40
2022-10-08T02:25:21.996Z,15.30
2022-10-08T02:28:28.265Z,15.30
2022-10-08T02:31:32.713Z,15.30
2022-10-08T02:34:44.759Z,15.30
2022-10-08T02:37:41.762Z,15.20
2022-10-08T02:40:30.511Z,15.20
2022-10-08T02:43:27.862Z,15.20
2022-10-08T02:46:20.485Z,15.20
2022-10-08T02:49:17.623Z,15.00
2022-10-08T02:52:05.127Z,15.00
2022-10-08T02:54:52.758Z,15.10
2022-10-08T02:57:45.436Z,15.10
2022-10-08T03:00:36.951Z,15.10
2022-10-08T03:03:28.658Z,15.00
2022-10-08T03:06:16.137Z,15.00
2022-10-08T03:09:03.303Z,14.90
2022-10-08T03:11:49.866Z,14.90
2022-10-08T03:14:39.992Z,14.90
2022-10-08T03:17:31.178Z,14.90
2022-10-08T03:20:16.882Z,14.90
2022-10-08T03:23:02.558Z,14.90
2022-10-08T03:25:48.002Z,14.90
2022-10-08T03:28:33.863Z,14.90
2022-10-08T03:31:19.840Z,14.90
2022-10-08T03:34:05.882Z,14.90
2022-10-08T03:36:51.506Z,14.90
2022-10-08T03:39:37.367Z,14.90
2022-10-08T03:42:23.103Z,14.90
2022-10-08T03:45:09.058Z,14.90
2022-10-08T03:47:54.885Z,14.80
2022-10-08T03:50:48.914Z,14.70
2022-10-08T03:53:37.234Z,14.70
2022-10-08T03:56:26.760Z,14.70
2022-10-08T03:59:12.684Z,14.70
2022-10-08T04:01:58.254Z,14.70
2022-10-08T04:04:43.887Z,14.70
2022-10-08T04:07:29.449Z,14.70
2022-10-08T04:10:15.246Z,14.70
2022-10-08T04:13:00.850Z,14.70
2022-10-08T04:15:50.804Z,14.70
2022-10-08T04:18:36.747Z,14.70
2022-10-08T04:21:22.617Z,14.70
2022-10-08T04:24:09.855Z,14.70
2022-10-08T04:26:55.851Z,14.60
2022-10-08T04:29:41.732Z,14.60
2022-10-08T04:32:27.782Z,14.60
2022-10-08T04:35:13.548Z,14.60
2022-10-08T04:37:59.042Z,14.60
2022-10-08T04:40:44.816Z,14.60
2022-10-08T04:43:31.052Z,14.60
2022-10-08T04:46:20.133Z,14.70
2022-10-08T04:49:06.083Z,14.70
2022-10-08T04:51:51.803Z,14.70
2022-10-08T04:54:37.290Z,14.60
2022-10-08T04:57:22.920Z,14.50
2022-10-08T05:00:23.951Z,14.50
2022-10-08T05:03:09.693Z,14.30
2022-10-08T05:05:55.386Z,14.20
2022-10-08T05:08:41.082Z,14.20
2022-10-08T05:11:27.742Z,14.20
2022-10-08T05:14:13.226Z,14.20
2022-10-08T05:16:58.744Z,14.30
2022-10-08T05:19:44.394Z,14.30
2022-10-08T05:22:29.972Z,14.30
2022-10-08T05:25:15.591Z,14.30
2022-10-08T05:28:02.638Z,14.20
2022-10-08T05:30:48.276Z,14.30
2022-10-08T05:33:37.938Z,14.30
2022-10-08T05:36:27.216Z,14.30
2022-10-08T05:39:12.655Z,14.20
2022-10-08T05:41:58.291Z,14.20
2022-10-08T05:44:45.553Z,14.20
2022-10-08T05:47:31.043Z,14.20
2022-10-08T05:50:17.144Z,14.20
2022-10-08T05:53:08.589Z,14.20
2022-10-08T05:56:02.312Z,14.40
2022-10-08T05:58:49.244Z,15.00
2022-10-08T06:01:35.134Z,15.20
2022-10-08T06:04:20.911Z,15.60
2022-10-08T06:07:06.754Z,16.20
2022-10-08T06:09:52.408Z,16.80
2022-10-08T06:12:37.942Z,17.40
2022-10-08T06:15:23.448Z,18.00
2022-10-08T06:18:09.128Z,18.40
2022-10-08T06:20:55.175Z,18.90
2022-10-08T06:23:45.298Z,19.20
2022-10-08T06:26:39.740Z,19.60
2022-10-08T06:29:25.470Z,19.90
2022-10-08T06:32:11.074Z,20.20
2022-10-08T06:34:56.651Z,20.60
2022-10-08T06:37:42.144Z,20.90
2022-10-08T06:40:27.964Z,21.00
2022-10-08T06:43:18.466Z,21.20
2022-10-08T06:46:05.990Z,21.00
2022-10-08T06:48:51.514Z,20.70
2022-10-08T06:51:37.055Z,20.40
2022-10-08T06:54:25.084Z,20.20
2022-10-08T06:57:10.760Z,20.10
2022-10-08T06:59:58.905Z,20.00
2022-10-08T07:02:45.234Z,20.00
2022-10-08T07:05:31.211Z,19.90
2022-10-08T07:08:16.927Z,19.90
2022-10-08T07:11:17.159Z,20.00
2022-10-08T07:14:03.028Z,19.90
2022-10-08T07:16:48.833Z,19.80
2022-10-08T07:19:34.554Z,19.90
2022-10-08T07:22:20.227Z,20.00
2022-10-08T07:25:06.046Z,19.90
2022-10-08T07:27:52.072Z,19.90
2022-10-08T07:30:37.796Z,19.90
2022-10-08T07:33:23.616Z,19.90
2022-10-08T07:36:17.867Z,20.00
2022-10-08T07:39:07.150Z,20.00
2022-10-08T07:41:53.148Z,20.00
2022-10-08T07:44:38.543Z,20.00
2022-10-08T07:47:24.183Z,20.10
2022-10-08T07:50:09.792Z,20.10
2022-10-08T07:52:55.511Z,20.30
2022-10-08T07:55:41.076Z,20.30
2022-10-08T07:58:26.719Z,20.50
2022-10-08T08:01:15.921Z,20.50
2022-10-08T08:04:04.739Z,20.50
2022-10-08T08:06:52.428Z,20.60
2022-10-08T08:09:38.028Z,20.70
2022-10-08T08:12:23.603Z,20.80
2022-10-08T08:15:09.626Z,20.90
2022-10-08T08:17:55.402Z,20.80
2022-10-08T08:20:41.248Z,20.90
2022-10-08T08:23:32.487Z,21.00
2022-10-08T08:26:20.967Z,21.10
2022-10-08T08:29:10.185Z,21.20
2022-10-08T08:31:55.916Z,21.20
2022-10-08T08:34:41.389Z,21.10
2022-10-08T08:37:27.023Z,21.10
2022-10-08T08:40:12.674Z,21.10
2022-10-08T08:42:58.453Z,21.10
2022-10-08T08:45:47.948Z,21.10
2022-10-08T08:48:38.571Z,21.00
2022-10-08T08:51:24.384Z,21.00
2022-10-08T08:54:10.055Z,20.90
2022-10-08T08:57:02.072Z,21.00
2022-10-08T08:59:49.326Z,21.10
2022-10-08T09:02:40.381Z,21.20
2022-10-08T09:05:31.272Z,21.10
2022-10-08T09:08:31.179Z,21.20
2022-10-08T09:11:19.376Z,21.30
2022-10-08T09:14:11.844Z,21.20
2022-10-08T09:17:00.145Z,21.30
2022-10-08T09:19:47.052Z,21.30
2022-10-08T09:22:38.055Z,21.30
2022-10-08T09:25:32.817Z,21.20
2022-10-08T09:28:40.736Z,21.30
2022-10-08T09:31:42.566Z,21.40
2022-10-08T09:34:28.476Z,21.20
2022-10-08T09:37:23.691Z,21.10
2022-10-08T09:40:12.442Z,21.10
2022-10-08T09:43:09.418Z,21.20
2022-10-08T09:45:56.493Z,21.20
2022-10-08T09:48:45.822Z,21.20
2022-10-08T09:51:31.399Z,21.20
2022-10-08T09:54:23.841Z,21.30
2022-10-08T09:57:14.780Z,21.40
2022-10-08T10:00:05.557Z,21.50
2022-10-08T10:02:56.231Z,21.60
2022-10-08T10:05:42.275Z,21.60
2022-10-08T10:08:46.429Z,21.70
2022-10-08T10:11:39.412Z,21.80
2022-10-08T10:14:36.449Z,21.90
2022-10-08T10:17:44.880Z,21.90
2022-10-08T10:20:41.471Z,21.90
2022-10-08T10:23:34.402Z,22.00
2022-10-08T10:26:29.612Z,22.00
2022-10-08T10:29:21.482Z,22.00
2022-10-08T10:32:21.060Z,22.00
2022-10-08T10:35:25.789Z,22.10
2022-10-08T10:38:34.445Z,22.10
2022-10-08T10:41:36.832Z,22.10
2022-10-08T10:44:43.556Z,22.10
2022-10-08T10:47:33.096Z,22.20
2022-10-08T10:50:36.762Z,22.30
2022-10-08T10:53:28.853Z,22.40
2022-10-08T10:56:22.821Z,22.40
2022-10-08T10:59:45.151Z,22.40
2022-10-08T11:03:02.272Z,22.40
2022-10-08T11:05:57.639Z,22.30
2022-10-08T11:09:16.539Z,22.40
2022-10-08T11:12:25.462Z,22.40
2022-10-08T11:15:37.655Z,22.60
2022-10-08T11:18:45.750Z,22.70
2022-10-08T11:21:58.671Z,22.60
2022-10-08T11:24:56.431Z,22.70
2022-10-08T11:28:07.759Z,22.80
2022-10-08T11:31:06.036Z,22.70
2022-10-08T11:33:54.206Z,22.70
2022-10-08T11:36:50.419Z,22.70
2022-10-08T11:39:52.444Z,22.80
2022-10-08T11:43:06.393Z,22.90
2022-10-08T11:46:10.846Z,22.90
2022-10-08T11:49:16.354Z,23.00
2022-10-08T11:52:13.984Z,23.00
2022-10-08T11:55:03.170Z,23.00
2022-10-08T11:58:23.909Z,22.90
2022-10-08T12:01:10.543Z,23.00
2022-10-08T12:04:09.706Z,23.00
2022-10-08T12:07:27.335Z,23.10
2022-10-08T12:10:19.172Z,23.10
2022-10-08T12:13:17.647Z,23.10
2022-10-08T12:16:05.221Z,23.20
2022-10-08T12:18:50.716Z,23.10
2022-10-08T12:21:50.741Z,23.10
2022-10-08T12:24:39.168Z,23.20
2022-10-08T12:27:30.690Z,23.30
2022-10-08T12:30:17.294Z,23.20
2022-10-08T12:33:03.647Z,23.10
2022-10-08T12:36:07.908Z,23.00
2022-10-08T12:39:31.799Z,23.10
2022-10-08T12:42:35.424Z,23.10
2022-10-08T12:45:33.596Z,23.10
2022-10-08T12:48:53.857Z,23.10
2022-10-08T12:52:13.470Z,23.00
2022-10-08T12:55:01.914Z,23.00
2022-10-08T12:57:50.379Z,23.00
2022-10-08T13:00:37.398Z,23.00
2022-10-08T13:03:23.650Z,23.10
2022-10-08T13:06:35.568Z,23.00
2022-10-08T13:09:34.320Z,23.10
2022-10-08T13:12:19.938Z,23.10
2022-10-08T13:15:09.307Z,23.10
2022-10-08T13:17:54.888Z,23.10
2022-10-08T13:20:59.163Z,23.10
2022-10-08T13:23:47.588Z,23.10
2022-10-08T13:26:42.311Z,23.20
2022-10-08T13:29:36.003Z,23.10
2022-10-08T13:32:35.295Z,23.10
2022-10-08T13:35:24.131Z,23.10
2022-10-08T13:38:19.563Z,23.10
2022-10-08T13:41:08.197Z,23.20
2022-10-08T13:43:53.543Z,23.20
2022-10-08T13:46:39.167Z,23.30
2022-10-08T13:49:28.950Z,23.30
2022-10-08T13:52:21.487Z,23.30
2022-10-08T13:55:24.404Z,23.30
2022-10-08T13:58:12.642Z,23.20
2022-10-08T14:00:58.012Z,23.10
2022-10-08T14:03:43.767Z,23.10
2022-10-08T14:06:29.404Z,23.10
2022-10-08T14:09:19.417Z,23.10
2022-10-08T14:12:05.437Z,23.10
2022-10-08T14:14:51.063Z,23.00
2022-10-08T14:17:36.878Z,23.00
2022-10-08T14:20:22.561Z,23.00
2022-10-08T14:23:09.599Z,23.00
2022-10-08T14:25:55.016Z,23.10
2022-10-08T14:28:40.680Z,23.10
2022-10-08T14:31:28.270Z,23.10
2022-10-08T14:34:13.844Z,23.10
2022-10-08T14:36:59.957Z,23.10
2022-10-08T14:39:45.338Z,23.10
2022-10-08T14:42:31.198Z,23.10
2022-10-08T14:45:17.052Z,23.10
2022-10-08T14:48:02.424Z,23.00
2022-10-08T14:50:48.290Z,23.00
2022-10-08T14:53:33.635Z,22.90
2022-10-08T14:56:19.475Z,22.80
2022-10-08T14:59:05.635Z,22.70
2022-10-08T15:01:51.161Z,22.60
2022-10-08T15:04:36.884Z,22.60
2022-10-08T15:07:22.342Z,22.50
2022-10-08T15:10:09.234Z,22.50
2022-10-08T15:12:54.933Z,22.50
2022-10-08T15:15:45.323Z,22.50
2022-10-08T15:18:32.409Z,22.50
2022-10-08T15:21:18.907Z,22.50
2022-10-08T15:24:04.825Z,22.50
2022-10-08T15:26:50.114Z,22.60
2022-10-08T15:29:36.380Z,22.60
2022-10-08T15:32:25.210Z,22.60
2022-10-08T15:35:12.891Z,22.50
2022-10-08T15:37:58.576Z,22.50
2022-10-08T15:40:44.250Z,22.50
2022-10-08T15:43:33.736Z,22.40
2022-10-08T15:46:20.754Z,22.40
2022-10-08T15:49:06.809Z,22.40
2022-10-08T15:51:52.536Z,22.30
2022-10-08T15:54:39.570Z,22.30
2022-10-08T15:57:25.099Z,22.30
2022-10-08T16:00:11.704Z,22.20
2022-10-08T16:03:00.617Z,22.20
2022-10-08T16:05:46.101Z,22.20
2022-10-08T16:08:33.241Z,22.10
2022-10-08T16:11:28.836Z,22.10
2022-10-08T16:14:15.755Z,22.00
2022-10-08T16:17:01.613Z,22.00
2022-10-08T16:19:47.519Z,21.90
2022-10-08T16:22:35.970Z,21.90
2022-10-08T16:25:21.652Z,21.80
2022-10-08T16:28:07.523Z,21.70
2022-10-08T16:30:56.339Z,21.70
2022-10-08T16:33:42.491Z,21.60
2022-10-08T16:36:30.842Z,21.60
2022-10-08T16:39:19.037Z,21.50
2022-10-08T16:42:04.705Z,21.40
2022-10-08T16:44:50.539Z,21.30
2022-10-08T16:47:36.273Z,21.30
2022-10-08T16:50:22.106Z,21.30
2022-10-08T16:53:10.875Z,21.20
2022-10-08T16:56:01.238Z,21.10
2022-10-08T16:58:52.296Z,21.10
2022-10-08T17:01:40.579Z,21.00
2022-10-08T17:04:27.986Z,21.00
2022-10-08T17:07:13.434Z,20.90
2022-10-08T17:09:59.169Z,20.90
2022-10-08T17:12:45.091Z,20.80
2022-10-08T17:15:31.120Z,20.80
2022-10-08T17:18:16.964Z,20.70
2022-10-08T17:21:03.870Z,20.70
2022-10-08T17:23:50.151Z,20.60
2022-10-08T17:26:36.010Z,20.60
2022-10-08T17:29:21.563Z,20.50
2022-10-08T17:32:07.794Z,20.50
2022-10-08T17:34:56.068Z,20.50
2022-10-08T17:37:41.869Z,20.50
2022-10-08T17:40:30.408Z,20.50
2022-10-08T17:43:15.751Z,20.40
2022-10-08T17:46:16.164Z,20.40
2022-10-08T17:49:01.864Z,20.40
2022-10-08T17:51:47.694Z,20.40
2022-10-08T17:54:33.530Z,20.40
2022-10-08T17:57:19.227Z,20.40
2022-10-08T18:00:05.303Z,20.40
2022-10-08T18:02:54.697Z,20.30
2022-10-08T18:05:40.563Z,20.30
2022-10-08T18:08:26.582Z,20.30
2022-10-08T18:11:14.380Z,20.30
2022-10-08T18:14:02.266Z,20.20
2022-10-08T18:16:48.806Z,20.20
2022-10-08T18:19:34.295Z,20.20
2022-10-08T18:22:22.119Z,20.20
2022-10-08T18:25:08.262Z,20.20
2022-10-08T18:27:57.338Z,20.20
2022-10-08T18:30:42.967Z,20.20
2022-10-08T18:33:31.569Z,20.10
2022-10-08T18:36:20.175Z,20.10
2022-10-08T18:39:08.422Z,20.10
2022-10-08T18:41:54.091Z,20.10
2022-10-08T18:44:39.702Z,20.10
2022-10-08T18:47:25.105Z,20.00
2022-10-08T18:50:10.807Z,20.00
2022-10-08T18:52:56.631Z,20.00
2022-10-08T18:55:49.507Z,19.90
2022-10-08T18:58:35.014Z,19.90
2022-10-08T19:01:27.332Z,19.90
2022-10-08T19:04:23.345Z,19.90
2022-10-08T19:07:09.195Z,19.90
2022-10-08T19:09:55.562Z,19.90
2022-10-08T19:12:41.301Z,19.90
2022-10-08T19:15:27.051Z,19.80
2022-10-08T19:18:12.885Z,19.80
2022-10-08T19:21:06.874Z,19.80
2022-10-08T19:23:52.626Z,19.80
2022-10-08T19:26:38.168Z,19.80
2022-10-08T19:29:27.977Z,19.80
2022-10-08T19:32:13.675Z,19.70
2022-10-08T19:34:59.578Z,19.70
2022-10-08T19:37:45.369Z,19.70
2022-10-08T19:40:31.063Z,19.70
2022-10-08T19:43:16.707Z,19.60
2022-10-08T19:46:04.083Z,19.60
2022-10-08T19:48:55.931Z,19.60
2022-10-08T19:51:42.199Z,19.60
2022-10-08T19:54:27.786Z,19.60
2022-10-08T19:57:13.183Z,19.60
2022-10-08T19:59:58.729Z,19.60
2022-10-08T20:02:50.851Z,19.60
2022-10-08T20:05:36.679Z,19.60
2022-10-08T20:08:22.603Z,19.50
2022-10-08T20:11:11.455Z,19.50
2022-10-08T20:13:58.609Z,19.60
2022-10-08T20:16:44.300Z,19.60
2022-10-08T20:19:29.951Z,19.50
2022-10-08T20:22:15.787Z,19.60
2022-10-08T20:25:01.588Z,19.60
2022-10-08T20:27:48.379Z,19.50
2022-10-08T20:30:34.028Z,19.60
2022-10-08T20:33:20.087Z,19.60
2022-10-08T20:36:05.824Z,19.60
2022-10-08T20:38:51.765Z,19.50
2022-10-08T20:41:39.687Z,19.60
2022-10-08T20:44:25.583Z,19.60
2022-10-08T20:47:11.627Z,19.60
2022-10-08T20:49:57.501Z,19.60
2022-10-08T20:52:42.906Z,19.60
2022-10-08T20:55:28.596Z,19.50
2022-10-08T20:58:14.407Z,19.50
2022-10-08T21:01:07.296Z,19.50
2022-10-08T21:03:54.652Z,19.50
2022-10-08T21:06:45.759Z,19.50
2022-10-08T21:09:31.506Z,19.40
2022-10-08T21:12:17.415Z,19.40
2022-10-08T21:15:03.615Z,19.40
2022-10-08T21:17:49.443Z,19.40
2022-10-08T21:20:38.563Z,19.30
2022-10-08T21:23:24.014Z,19.30
2022-10-08T21:26:16.471Z,19.30
2022-10-08T21:29:04.556Z,19.30
2022-10-08T21:31:50.239Z,19.30
2022-10-08T21:34:36.110Z,19.20
2022-10-08T21:37:21.633Z,19.20
2022-10-08T21:40:07.481Z,19.20
2022-10-08T21:42:53.203Z,19.20
2022-10-08T21:45:38.897Z,19.10
2022-10-08T21:48:25.244Z,19.10
2022-10-08T21:51:17.265Z,19.10
2022-10-08T21:54:05.369Z,19.10
2022-10-08T21:56:51.384Z,19.10
2022-10-08T21:59:37.297Z,19.10
2022-10-08T22:02:23.140Z,19.00
2022-10-08T22:05:09.362Z,19.10
2022-10-08T22:07:54.717Z,19.10
2022-10-08T22:10:40.211Z,19.00
2022-10-08T22:13:26.065Z,19.10
2022-10-08T22:16:14.142Z,19.10
2022-10-08T22:19:00.120Z,19.10
2022-10-08T22:21:45.785Z,19.10
2022-10-08T22:24:31.201Z,19.10
2022-10-08T22:27:16.927Z,19.10
2022-10-08T22:30:02.526Z,19.10
2022-10-08T22:32:48.411Z,19.10
2022-10-08T22:35:34.591Z,19.10
2022-10-08T22:38:20.057Z,19.10
2022-10-08T22:41:07.709Z,19.10
2022-10-08T22:43:53.930Z,19.10
2022-10-08T22:46:40.458Z,19.10
2022-10-08T22:49:26.494Z,19.10
2022-10-08T22:52:12.510Z,19.10
2022-10-08T22:54:58.326Z,19.20
2022-10-08T22:57:44.839Z,19.10
2022-10-08T23:00:30.553Z,19.20
2022-10-08T23:03:16.263Z,19.10
2022-10-08T23:06:08.083Z,19.10
2022-10-08T23:08:59.258Z,19.20
2022-10-08T23:11:44.435Z,19.10
2022-10-08T23:14:30.265Z,19.10
2022-10-08T23:17:16.151Z,19.10
2022-10-08T23:20:01.818Z,19.10
2022-10-08T23:22:47.770Z,19.10
2022-10-08T23:25:33.650Z,19.10
2022-10-08T23:28:19.422Z,19.10
2022-10-08T23:31:10.627Z,19.10
2022-10-08T23:33:57.433Z,19.10
2022-10-08T23:36:44.085Z,19.10
2022-10-08T23:39:29.714Z,19.10
2022-10-08T23:42:15.506Z,19.00
2022-10-08T23:45:01.180Z,19.00
2022-10-08T23:47:46.930Z,19.00
2022-10-08T23:50:37.849Z,19.00
2022-10-08T23:53:23.628Z,19.00
2022-10-08T23:56:09.724Z,19.00
2022-10-08T23:58:55.400Z,19.00
